XNA weather

Northwest Arkansas Regional Airport
Fayetteville/Springdale/Rogers, Arkansas, United States

Public forecast

Using degrees Fahrenheit for public forecast. Weather courtesy of forecast.io.

Current aviation weather report (METAR) for Northwest Arkansas Regional Airport

Retrieved 2019/12/11 23:53 UTC (35 minutes ago):

KXNA 112353Z 18005KT 10SM CLR 06/M07 A3039 RMK AO2 SLP299 T00561067 10106 20056 56010

Aviation forecast (TAF) for Northwest Arkansas Regional Airport

Retrieved 2019-12-12 00:22 UTC (6 minutes ago):

TAF KXNA 112320Z 1200/1224 19008KT P6SM SKC FM121500 19010G22KT P6SM SCT250